sensor_id;sensor_type;location;lat;lon;timestamp;P1;durP1;ratioP1;P2;durP2;ratioP2
14396;SDS011;50653;47.810;13.022;2023-03-14T00:01:07;2.33;;;1.42;;
14396;SDS011;50653;47.810;13.022;2023-03-14T00:03:37;1.50;;;1.40;;
14396;SDS011;50653;47.810;13.022;2023-03-14T00:06:04;3.53;;;1.70;;
14396;SDS011;50653;47.810;13.022;2023-03-14T00:08:30;1.95;;;1.48;;
14396;SDS011;50653;47.810;13.022;2023-03-14T00:10:56;1.55;;;1.45;;
14396;SDS011;50653;47.810;13.022;2023-03-14T00:13:23;2.30;;;1.90;;
14396;SDS011;50653;47.810;13.022;2023-03-14T00:15:49;1.90;;;1.80;;
14396;SDS011;50653;47.810;13.022;2023-03-14T00:18:15;2.20;;;1.80;;
14396;SDS011;50653;47.810;13.022;2023-03-14T00:20:40;2.10;;;1.90;;
14396;SDS011;50653;47.810;13.022;2023-03-14T00:23:06;2.40;;;2.10;;
14396;SDS011;50653;47.810;13.022;2023-03-14T00:25:32;3.37;;;3.07;;
14396;SDS011;50653;47.810;13.022;2023-03-14T00:27:57;2.37;;;1.97;;
14396;SDS011;50653;47.810;13.022;2023-03-14T00:30:23;1.80;;;1.70;;
14396;SDS011;50653;47.810;13.022;2023-03-14T00:32:48;3.40;;;1.83;;
14396;SDS011;50653;47.810;13.022;2023-03-14T00:35:14;2.10;;;1.83;;
14396;SDS011;50653;47.810;13.022;2023-03-14T00:37:40;2.33;;;1.58;;
14396;SDS011;50653;47.810;13.022;2023-03-14T00:40:06;3.30;;;1.90;;
14396;SDS011;50653;47.810;13.022;2023-03-14T00:42:33;2.70;;;1.42;;
14396;SDS011;50653;47.810;13.022;2023-03-14T00:44:59;2.30;;;1.80;;
14396;SDS011;50653;47.810;13.022;2023-03-14T00:47:25;1.85;;;1.75;;
14396;SDS011;50653;47.810;13.022;2023-03-14T00:49:51;3.42;;;2.47;;
14396;SDS011;50653;47.810;13.022;2023-03-14T00:52:17;4.20;;;3.33;;
14396;SDS011;50653;47.810;13.022;2023-03-14T00:54:43;3.10;;;2.90;;
14396;SDS011;50653;47.810;13.022;2023-03-14T00:57:09;3.00;;;2.65;;
14396;SDS011;50653;47.810;13.022;2023-03-14T00:59:34;2.20;;;2.00;;
14396;SDS011;50653;47.810;13.022;2023-03-14T01:02:00;3.67;;;2.37;;
14396;SDS011;50653;47.810;13.022;2023-03-14T01:04:27;3.80;;;1.98;;
14396;SDS011;50653;47.810;13.022;2023-03-14T01:06:54;1.95;;;1.60;;
14396;SDS011;50653;47.810;13.022;2023-03-14T01:09:19;1.92;;;1.80;;
14396;SDS011;50653;47.810;13.022;2023-03-14T01:11:46;2.40;;;1.92;;
14396;SDS011;50653;47.810;13.022;2023-03-14T01:14:13;2.03;;;1.92;;
14396;SDS011;50653;47.810;13.022;2023-03-14T01:16:40;2.30;;;1.90;;
14396;SDS011;50653;47.810;13.022;2023-03-14T01:19:05;5.80;;;1.70;;
14396;SDS011;50653;47.810;13.022;2023-03-14T01:21:32;2.00;;;1.90;;
14396;SDS011;50653;47.810;13.022;2023-03-14T01:24:00;3.65;;;2.13;;
14396;SDS011;50653;47.810;13.022;2023-03-14T01:26:29;2.22;;;2.03;;
14396;SDS011;50653;47.810;13.022;2023-03-14T01:28:56;3.67;;;2.10;;
14396;SDS011;50653;47.810;13.022;2023-03-14T01:31:22;2.10;;;2.00;;
14396;SDS011;50653;47.810;13.022;2023-03-14T01:33:49;4.10;;;2.47;;
14396;SDS011;50653;47.810;13.022;2023-03-14T01:36:15;5.10;;;1.70;;
14396;SDS011;50653;47.810;13.022;2023-03-14T01:38:42;1.88;;;1.77;;
14396;SDS011;50653;47.810;13.022;2023-03-14T01:41:18;2.03;;;1.83;;
14396;SDS011;50653;47.810;13.022;2023-03-14T01:43:48;2.10;;;2.00;;
14396;SDS011;50653;47.810;13.022;2023-03-14T01:46:19;2.50;;;2.30;;
14396;SDS011;50653;47.810;13.022;2023-03-14T01:49:01;1.90;;;1.80;;
14396;SDS011;50653;47.810;13.022;2023-03-14T01:54:02;2.40;;;1.98;;
14396;SDS011;50653;47.810;13.022;2023-03-14T01:56:32;3.20;;;2.90;;
14396;SDS011;50653;47.810;13.022;2023-03-14T01:58:58;3.50;;;1.90;;
14396;SDS011;50653;47.810;13.022;2023-03-14T02:01:26;2.80;;;2.10;;
14396;SDS011;50653;47.810;13.022;2023-03-14T02:03:53;2.28;;;2.00;;
14396;SDS011;50653;47.810;13.022;2023-03-14T02:06:24;2.17;;;2.08;;
14396;SDS011;50653;47.810;13.022;2023-03-14T02:08:57;3.00;;;2.10;;
14396;SDS011;50653;47.810;13.022;2023-03-14T02:11:28;2.47;;;2.28;;
14396;SDS011;50653;47.810;13.022;2023-03-14T02:14:02;3.38;;;1.60;;
14396;SDS011;50653;47.810;13.022;2023-03-14T02:16:48;1.80;;;1.70;;
14396;SDS011;50653;47.810;13.022;2023-03-14T02:19:44;2.10;;;2.00;;
14396;SDS011;50653;47.810;13.022;2023-03-14T02:22:37;2.25;;;2.15;;
14396;SDS011;50653;47.810;13.022;2023-03-14T02:27:54;2.50;;;2.30;;
14396;SDS011;50653;47.810;13.022;2023-03-14T02:30:24;3.80;;;2.30;;
14396;SDS011;50653;47.810;13.022;2023-03-14T02:33:01;3.10;;;2.90;;
14396;SDS011;50653;47.810;13.022;2023-03-14T02:35:32;3.80;;;2.57;;
14396;SDS011;50653;47.810;13.022;2023-03-14T02:41:03;2.72;;;2.53;;
14396;SDS011;50653;47.810;13.022;2023-03-14T02:43:33;2.30;;;2.20;;
14396;SDS011;50653;47.810;13.022;2023-03-14T02:46:02;4.90;;;2.58;;
14396;SDS011;50653;47.810;13.022;2023-03-14T02:48:34;4.40;;;2.70;;
14396;SDS011;50653;47.810;13.022;2023-03-14T02:51:04;6.70;;;3.00;;
14396;SDS011;50653;47.810;13.022;2023-03-14T02:53:34;2.15;;;2.05;;
14396;SDS011;50653;47.810;13.022;2023-03-14T02:56:07;2.33;;;2.13;;
14396;SDS011;50653;47.810;13.022;2023-03-14T02:58:34;2.53;;;2.33;;
14396;SDS011;50653;47.810;13.022;2023-03-14T03:01:15;2.17;;;2.08;;
14396;SDS011;50653;47.810;13.022;2023-03-14T03:03:42;3.95;;;2.35;;
14396;SDS011;50653;47.810;13.022;2023-03-14T03:06:08;3.20;;;2.50;;
14396;SDS011;50653;47.810;13.022;2023-03-14T03:08:33;2.35;;;2.08;;
14396;SDS011;50653;47.810;13.022;2023-03-14T03:10:59;1.90;;;1.80;;
14396;SDS011;50653;47.810;13.022;2023-03-14T03:13:27;2.28;;;2.17;;
14396;SDS011;50653;47.810;13.022;2023-03-14T03:15:55;2.60;;;2.35;;
14396;SDS011;50653;47.810;13.022;2023-03-14T03:18:20;3.75;;;2.92;;
14396;SDS011;50653;47.810;13.022;2023-03-14T03:20:46;3.08;;;2.00;;
14396;SDS011;50653;47.810;13.022;2023-03-14T03:23:12;2.93;;;1.83;;
14396;SDS011;50653;47.810;13.022;2023-03-14T03:25:38;3.45;;;2.95;;
14396;SDS011;50653;47.810;13.022;2023-03-14T03:28:04;3.58;;;2.60;;
14396;SDS011;50653;47.810;13.022;2023-03-14T03:30:36;4.90;;;1.80;;
14396;SDS011;50653;47.810;13.022;2023-03-14T03:33:03;2.30;;;2.10;;
14396;SDS011;50653;47.810;13.022;2023-03-14T03:35:29;5.00;;;2.53;;
14396;SDS011;50653;47.810;13.022;2023-03-14T03:37:55;2.33;;;2.15;;
14396;SDS011;50653;47.810;13.022;2023-03-14T03:40:21;1.50;;;1.40;;
14396;SDS011;50653;47.810;13.022;2023-03-14T03:42:47;1.67;;;1.58;;
14396;SDS011;50653;47.810;13.022;2023-03-14T03:45:13;1.70;;;1.60;;
14396;SDS011;50653;47.810;13.022;2023-03-14T03:47:48;2.85;;;2.00;;
14396;SDS011;50653;47.810;13.022;2023-03-14T03:50:13;1.30;;;1.20;;
14396;SDS011;50653;47.810;13.022;2023-03-14T03:52:39;2.27;;;1.70;;
14396;SDS011;50653;47.810;13.022;2023-03-14T03:55:05;3.60;;;1.67;;
14396;SDS011;50653;47.810;13.022;2023-03-14T03:57:31;1.90;;;1.67;;
14396;SDS011;50653;47.810;13.022;2023-03-14T03:59:56;1.60;;;1.50;;
14396;SDS011;50653;47.810;13.022;2023-03-14T04:02:22;3.70;;;1.70;;
14396;SDS011;50653;47.810;13.022;2023-03-14T04:04:49;2.60;;;1.30;;
14396;SDS011;50653;47.810;13.022;2023-03-14T04:07:16;2.30;;;2.10;;
14396;SDS011;50653;47.810;13.022;2023-03-14T04:09:42;3.92;;;1.90;;
14396;SDS011;50653;47.810;13.022;2023-03-14T04:12:29;1.83;;;1.73;;
14396;SDS011;50653;47.810;13.022;2023-03-14T04:15:03;2.08;;;1.55;;
14396;SDS011;50653;47.810;13.022;2023-03-14T04:17:30;1.60;;;1.50;;
14396;SDS011;50653;47.810;13.022;2023-03-14T04:19:56;2.30;;;1.42;;
14396;SDS011;50653;47.810;13.022;2023-03-14T04:22:30;2.83;;;1.50;;
14396;SDS011;50653;47.810;13.022;2023-03-14T04:24:55;4.50;;;1.50;;
14396;SDS011;50653;47.810;13.022;2023-03-14T04:27:21;2.20;;;1.63;;
14396;SDS011;50653;47.810;13.022;2023-03-14T04:29:47;1.75;;;1.65;;
14396;SDS011;50653;47.810;13.022;2023-03-14T04:32:17;1.90;;;1.80;;
14396;SDS011;50653;47.810;13.022;2023-03-14T04:34:43;1.95;;;1.85;;
14396;SDS011;50653;47.810;13.022;2023-03-14T04:37:08;3.17;;;2.30;;
14396;SDS011;50653;47.810;13.022;2023-03-14T04:39:39;3.55;;;3.25;;
14396;SDS011;50653;47.810;13.022;2023-03-14T04:42:11;2.00;;;1.90;;
14396;SDS011;50653;47.810;13.022;2023-03-14T04:44:37;1.60;;;1.50;;
14396;SDS011;50653;47.810;13.022;2023-03-14T04:47:04;2.80;;;1.20;;
14396;SDS011;50653;47.810;13.022;2023-03-14T04:49:30;2.00;;;1.30;;
14396;SDS011;50653;47.810;13.022;2023-03-14T04:51:56;1.20;;;1.10;;
14396;SDS011;50653;47.810;13.022;2023-03-14T04:54:24;2.90;;;1.88;;
14396;SDS011;50653;47.810;13.022;2023-03-14T04:56:54;2.17;;;2.08;;
14396;SDS011;50653;47.810;13.022;2023-03-14T04:59:20;2.75;;;2.17;;
14396;SDS011;50653;47.810;13.022;2023-03-14T05:01:46;0.90;;;0.50;;
14396;SDS011;50653;47.810;13.022;2023-03-14T05:04:26;1.27;;;0.70;;
14396;SDS011;50653;47.810;13.022;2023-03-14T05:07:07;1.15;;;0.50;;
14396;SDS011;50653;47.810;13.022;2023-03-14T05:09:51;1.40;;;0.50;;
14396;SDS011;50653;47.810;13.022;2023-03-14T05:12:44;2.45;;;0.95;;
14396;SDS011;50653;47.810;13.022;2023-03-14T05:15:30;0.80;;;0.73;;
14396;SDS011;50653;47.810;13.022;2023-03-14T05:18:05;3.28;;;0.65;;
14396;SDS011;50653;47.810;13.022;2023-03-14T05:20:50;1.10;;;0.70;;
14396;SDS011;50653;47.810;13.022;2023-03-14T05:23:44;2.30;;;0.70;;
14396;SDS011;50653;47.810;13.022;2023-03-14T05:26:48;0.80;;;0.60;;
14396;SDS011;50653;47.810;13.022;2023-03-14T05:29:20;2.60;;;0.90;;
14396;SDS011;50653;47.810;13.022;2023-03-14T05:32:24;1.40;;;1.05;;
14396;SDS011;50653;47.810;13.022;2023-03-14T05:34:57;0.80;;;0.60;;
14396;SDS011;50653;47.810;13.022;2023-03-14T05:37:36;1.75;;;0.82;;
14396;SDS011;50653;47.810;13.022;2023-03-14T05:40:22;1.00;;;0.82;;
14396;SDS011;50653;47.810;13.022;2023-03-14T05:43:01;0.80;;;0.52;;
14396;SDS011;50653;47.810;13.022;2023-03-14T05:45:38;0.95;;;0.73;;
14396;SDS011;50653;47.810;13.022;2023-03-14T05:48:22;0.80;;;0.50;;
14396;SDS011;50653;47.810;13.022;2023-03-14T05:51:09;1.00;;;0.90;;
14396;SDS011;50653;47.810;13.022;2023-03-14T05:53:43;2.00;;;0.70;;
14396;SDS011;50653;47.810;13.022;2023-03-14T05:56:15;2.00;;;0.90;;
14396;SDS011;50653;47.810;13.022;2023-03-14T05:59:04;1.50;;;0.80;;
14396;SDS011;50653;47.810;13.022;2023-03-14T06:01:40;2.58;;;0.80;;
14396;SDS011;50653;47.810;13.022;2023-03-14T06:04:12;1.45;;;1.00;;
14396;SDS011;50653;47.810;13.022;2023-03-14T06:06:39;3.38;;;0.70;;
14396;SDS011;50653;47.810;13.022;2023-03-14T06:09:06;1.40;;;1.20;;
14396;SDS011;50653;47.810;13.022;2023-03-14T06:11:34;2.00;;;1.23;;
14396;SDS011;50653;47.810;13.022;2023-03-14T06:14:01;1.10;;;1.00;;
14396;SDS011;50653;47.810;13.022;2023-03-14T06:16:26;2.20;;;1.23;;
14396;SDS011;50653;47.810;13.022;2023-03-14T06:18:53;2.60;;;1.52;;
14396;SDS011;50653;47.810;13.022;2023-03-14T06:21:21;1.40;;;1.30;;
14396;SDS011;50653;47.810;13.022;2023-03-14T06:23:47;1.10;;;1.00;;
14396;SDS011;50653;47.810;13.022;2023-03-14T06:26:13;0.80;;;0.70;;
14396;SDS011;50653;47.810;13.022;2023-03-14T06:28:39;0.98;;;0.88;;
14396;SDS011;50653;47.810;13.022;2023-03-14T06:31:05;1.20;;;1.00;;
14396;SDS011;50653;47.810;13.022;2023-03-14T06:33:38;0.93;;;0.70;;
14396;SDS011;50653;47.810;13.022;2023-03-14T06:36:05;0.90;;;0.73;;
14396;SDS011;50653;47.810;13.022;2023-03-14T06:38:32;2.10;;;1.13;;
14396;SDS011;50653;47.810;13.022;2023-03-14T06:41:05;1.33;;;0.80;;
14396;SDS011;50653;47.810;13.022;2023-03-14T06:43:42;3.17;;;1.00;;
14396;SDS011;50653;47.810;13.022;2023-03-14T06:46:08;1.70;;;1.20;;
14396;SDS011;50653;47.810;13.022;2023-03-14T06:48:37;2.27;;;1.20;;
14396;SDS011;50653;47.810;13.022;2023-03-14T06:51:02;1.30;;;1.20;;
14396;SDS011;50653;47.810;13.022;2023-03-14T06:53:28;1.90;;;1.20;;
14396;SDS011;50653;47.810;13.022;2023-03-14T06:55:57;2.30;;;1.40;;
14396;SDS011;50653;47.810;13.022;2023-03-14T06:58:24;4.10;;;1.40;;
14396;SDS011;50653;47.810;13.022;2023-03-14T07:00:51;1.20;;;1.10;;
14396;SDS011;50653;47.810;13.022;2023-03-14T07:03:22;1.88;;;1.42;;
14396;SDS011;50653;47.810;13.022;2023-03-14T07:05:50;1.45;;;1.33;;
14396;SDS011;50653;47.810;13.022;2023-03-14T07:08:16;3.45;;;2.47;;
14396;SDS011;50653;47.810;13.022;2023-03-14T07:10:41;3.20;;;2.90;;
14396;SDS011;50653;47.810;13.022;2023-03-14T07:13:08;2.23;;;1.80;;
14396;SDS011;50653;47.810;13.022;2023-03-14T07:15:43;2.92;;;1.40;;
14396;SDS011;50653;47.810;13.022;2023-03-14T07:18:10;3.70;;;1.70;;
14396;SDS011;50653;47.810;13.022;2023-03-14T07:20:35;2.50;;;1.87;;
14396;SDS011;50653;47.810;13.022;2023-03-14T07:23:02;2.78;;;1.90;;
14396;SDS011;50653;47.810;13.022;2023-03-14T07:25:42;1.50;;;1.40;;
14396;SDS011;50653;47.810;13.022;2023-03-14T07:28:08;2.30;;;1.60;;
14396;SDS011;50653;47.810;13.022;2023-03-14T07:30:36;3.30;;;1.40;;
14396;SDS011;50653;47.810;13.022;2023-03-14T07:33:09;1.50;;;1.40;;
14396;SDS011;50653;47.810;13.022;2023-03-14T07:35:34;1.77;;;1.00;;
14396;SDS011;50653;47.810;13.022;2023-03-14T07:38:02;2.40;;;1.00;;
14396;SDS011;50653;47.810;13.022;2023-03-14T07:40:34;1.20;;;1.00;;
14396;SDS011;50653;47.810;13.022;2023-03-14T07:43:02;1.00;;;0.80;;
14396;SDS011;50653;47.810;13.022;2023-03-14T07:45:40;1.40;;;1.30;;
14396;SDS011;50653;47.810;13.022;2023-03-14T07:48:05;1.90;;;1.43;;
14396;SDS011;50653;47.810;13.022;2023-03-14T07:50:31;4.00;;;1.70;;
14396;SDS011;50653;47.810;13.022;2023-03-14T07:52:56;1.80;;;1.70;;
14396;SDS011;50653;47.810;13.022;2023-03-14T07:55:22;1.52;;;1.42;;
14396;SDS011;50653;47.810;13.022;2023-03-14T07:57:48;5.75;;;5.35;;
14396;SDS011;50653;47.810;13.022;2023-03-14T08:00:13;3.97;;;3.67;;
14396;SDS011;50653;47.810;13.022;2023-03-14T08:02:40;3.00;;;2.80;;
14396;SDS011;50653;47.810;13.022;2023-03-14T08:05:06;4.30;;;4.00;;
14396;SDS011;50653;47.810;13.022;2023-03-14T08:07:32;6.57;;;3.60;;
14396;SDS011;50653;47.810;13.022;2023-03-14T08:09:58;2.90;;;2.70;;
14396;SDS011;50653;47.810;13.022;2023-03-14T08:12:23;2.65;;;2.40;;
14396;SDS011;50653;47.810;13.022;2023-03-14T08:14:49;3.08;;;2.88;;
14396;SDS011;50653;47.810;13.022;2023-03-14T08:17:14;3.60;;;3.30;;
14396;SDS011;50653;47.810;13.022;2023-03-14T08:19:41;3.40;;;3.20;;
14396;SDS011;50653;47.810;13.022;2023-03-14T08:22:07;3.85;;;3.55;;
14396;SDS011;50653;47.810;13.022;2023-03-14T08:24:32;3.30;;;3.00;;
14396;SDS011;50653;47.810;13.022;2023-03-14T08:26:58;2.70;;;2.50;;
14396;SDS011;50653;47.810;13.022;2023-03-14T08:29:24;3.70;;;2.70;;
14396;SDS011;50653;47.810;13.022;2023-03-14T08:31:50;2.00;;;1.90;;
14396;SDS011;50653;47.810;13.022;2023-03-14T08:34:15;1.60;;;1.50;;
14396;SDS011;50653;47.810;13.022;2023-03-14T08:36:41;4.00;;;1.60;;
14396;SDS011;50653;47.810;13.022;2023-03-14T08:39:07;2.30;;;2.20;;
14396;SDS011;50653;47.810;13.022;2023-03-14T08:41:34;2.00;;;1.70;;
14396;SDS011;50653;47.810;13.022;2023-03-14T08:44:08;2.58;;;1.60;;
14396;SDS011;50653;47.810;13.022;2023-03-14T08:46:36;2.78;;;1.50;;
14396;SDS011;50653;47.810;13.022;2023-03-14T08:49:02;3.17;;;1.30;;
14396;SDS011;50653;47.810;13.022;2023-03-14T08:51:28;1.90;;;0.90;;
14396;SDS011;50653;47.810;13.022;2023-03-14T08:53:54;1.70;;;1.35;;
14396;SDS011;50653;47.810;13.022;2023-03-14T08:56:20;1.60;;;1.05;;
14396;SDS011;50653;47.810;13.022;2023-03-14T08:58:46;1.00;;;0.88;;
14396;SDS011;50653;47.810;13.022;2023-03-14T09:01:11;1.50;;;0.80;;
14396;SDS011;50653;47.810;13.022;2023-03-14T09:03:37;2.87;;;1.20;;
14396;SDS011;50653;47.810;13.022;2023-03-14T09:06:04;1.10;;;0.97;;
14396;SDS011;50653;47.810;13.022;2023-03-14T09:08:31;2.50;;;1.88;;
14396;SDS011;50653;47.810;13.022;2023-03-14T09:10:56;2.10;;;1.10;;
14396;SDS011;50653;47.810;13.022;2023-03-14T09:13:22;2.35;;;1.10;;
14396;SDS011;50653;47.810;13.022;2023-03-14T09:15:52;1.20;;;0.70;;
14396;SDS011;50653;47.810;13.022;2023-03-14T09:18:18;2.28;;;1.00;;
14396;SDS011;50653;47.810;13.022;2023-03-14T09:20:44;3.97;;;0.88;;
14396;SDS011;50653;47.810;13.022;2023-03-14T09:23:09;3.40;;;1.05;;
14396;SDS011;50653;47.810;13.022;2023-03-14T09:25:35;1.50;;;0.90;;
14396;SDS011;50653;47.810;13.022;2023-03-14T09:28:01;1.10;;;0.90;;
14396;SDS011;50653;47.810;13.022;2023-03-14T09:30:27;1.73;;;1.10;;
14396;SDS011;50653;47.810;13.022;2023-03-14T09:32:52;3.13;;;1.65;;
14396;SDS011;50653;47.810;13.022;2023-03-14T09:35:18;1.80;;;1.40;;
14396;SDS011;50653;47.810;13.022;2023-03-14T09:37:44;1.40;;;1.20;;
14396;SDS011;50653;47.810;13.022;2023-03-14T09:40:14;2.83;;;1.60;;
14396;SDS011;50653;47.810;13.022;2023-03-14T09:42:42;2.90;;;1.40;;
14396;SDS011;50653;47.810;13.022;2023-03-14T09:45:24;5.75;;;4.68;;
14396;SDS011;50653;47.810;13.022;2023-03-14T09:47:50;5.87;;;4.10;;
14396;SDS011;50653;47.810;13.022;2023-03-14T09:50:18;5.40;;;2.88;;
14396;SDS011;50653;47.810;13.022;2023-03-14T09:52:45;4.30;;;3.17;;
14396;SDS011;50653;47.810;13.022;2023-03-14T09:55:19;3.65;;;3.25;;
14396;SDS011;50653;47.810;13.022;2023-03-14T09:57:46;3.30;;;2.20;;
14396;SDS011;50653;47.810;13.022;2023-03-14T10:05:44;1.93;;;1.83;;
14396;SDS011;50653;47.810;13.022;2023-03-14T10:08:11;5.13;;;2.10;;
14396;SDS011;50653;47.810;13.022;2023-03-14T10:10:38;2.05;;;1.85;;
14396;SDS011;50653;47.810;13.022;2023-03-14T10:15:50;1.48;;;1.38;;
14396;SDS011;50653;47.810;13.022;2023-03-14T10:18:17;1.70;;;1.60;;
14396;SDS011;50653;47.810;13.022;2023-03-14T10:20:44;1.80;;;1.70;;
14396;SDS011;50653;47.810;13.022;2023-03-14T10:25:41;2.70;;;1.30;;
14396;SDS011;50653;47.810;13.022;2023-03-14T10:28:26;1.30;;;1.17;;
14396;SDS011;50653;47.810;13.022;2023-03-14T10:30:54;1.30;;;1.20;;
14396;SDS011;50653;47.810;13.022;2023-03-14T10:33:22;1.80;;;1.30;;
14396;SDS011;50653;47.810;13.022;2023-03-14T10:35:56;3.00;;;1.50;;
14396;SDS011;50653;47.810;13.022;2023-03-14T10:38:25;3.50;;;1.90;;
14396;SDS011;50653;47.810;13.022;2023-03-14T10:40:53;2.20;;;1.20;;
14396;SDS011;50653;47.810;13.022;2023-03-14T10:43:22;1.38;;;1.27;;
14396;SDS011;50653;47.810;13.022;2023-03-14T10:46:06;1.50;;;1.30;;
14396;SDS011;50653;47.810;13.022;2023-03-14T10:48:54;1.30;;;0.95;;
14396;SDS011;50653;47.810;13.022;2023-03-14T10:51:29;1.27;;;1.17;;
14396;SDS011;50653;47.810;13.022;2023-03-14T10:53:56;1.80;;;1.00;;
14396;SDS011;50653;47.810;13.022;2023-03-14T10:56:25;1.30;;;1.10;;
14396;SDS011;50653;47.810;13.022;2023-03-14T10:58:57;1.00;;;0.90;;
14396;SDS011;50653;47.810;13.022;2023-03-14T11:03:54;1.10;;;0.97;;
14396;SDS011;50653;47.810;13.022;2023-03-14T11:09:15;1.05;;;0.90;;
14396;SDS011;50653;47.810;13.022;2023-03-14T11:11:48;1.60;;;0.80;;
14396;SDS011;50653;47.810;13.022;2023-03-14T11:19:53;1.10;;;0.85;;
14396;SDS011;50653;47.810;13.022;2023-03-14T11:25:37;1.25;;;1.00;;
14396;SDS011;50653;47.810;13.022;2023-03-14T11:30:43;1.42;;;1.00;;
14396;SDS011;50653;47.810;13.022;2023-03-14T11:33:16;1.10;;;0.80;;
14396;SDS011;50653;47.810;13.022;2023-03-14T11:35:47;0.80;;;0.80;;
14396;SDS011;50653;47.810;13.022;2023-03-14T11:41:14;1.80;;;0.80;;
14396;SDS011;50653;47.810;13.022;2023-03-14T11:43:48;1.10;;;1.00;;
14396;SDS011;50653;47.810;13.022;2023-03-14T11:46:29;1.50;;;1.00;;
14396;SDS011;50653;47.810;13.022;2023-03-14T11:51:55;1.98;;;1.10;;
14396;SDS011;50653;47.810;13.022;2023-03-14T11:54:29;6.75;;;1.70;;
14396;SDS011;50653;47.810;13.022;2023-03-14T11:57:17;1.80;;;1.60;;
14396;SDS011;50653;47.810;13.022;2023-03-14T12:10:29;1.80;;;1.50;;
14396;SDS011;50653;47.810;13.022;2023-03-14T12:13:01;1.10;;;1.00;;
14396;SDS011;50653;47.810;13.022;2023-03-14T12:15:27;1.48;;;0.90;;
14396;SDS011;50653;47.810;13.022;2023-03-14T12:17:56;1.10;;;0.90;;
14396;SDS011;50653;47.810;13.022;2023-03-14T12:20:24;1.10;;;1.00;;
14396;SDS011;50653;47.810;13.022;2023-03-14T12:22:55;1.70;;;1.55;;
14396;SDS011;50653;47.810;13.022;2023-03-14T12:25:27;1.60;;;1.50;;
14396;SDS011;50653;47.810;13.022;2023-03-14T12:35:37;14.98;;;10.10;;
14396;SDS011;50653;47.810;13.022;2023-03-14T12:38:13;17.98;;;10.75;;
14396;SDS011;50653;47.810;13.022;2023-03-14T12:40:46;1.20;;;1.10;;
14396;SDS011;50653;47.810;13.022;2023-03-14T12:43:26;1.10;;;0.85;;
14396;SDS011;50653;47.810;13.022;2023-03-14T12:46:18;1.15;;;0.70;;
14396;SDS011;50653;47.810;13.022;2023-03-14T12:48:47;0.80;;;0.70;;
14396;SDS011;50653;47.810;13.022;2023-03-14T12:51:36;1.70;;;1.10;;
14396;SDS011;50653;47.810;13.022;2023-03-14T12:57:04;1.00;;;0.60;;
14396;SDS011;50653;47.810;13.022;2023-03-14T12:59:50;0.60;;;0.50;;
14396;SDS011;50653;47.810;13.022;2023-03-14T13:02:25;0.80;;;0.60;;
14396;SDS011;50653;47.810;13.022;2023-03-14T13:10:25;1.00;;;0.70;;
14396;SDS011;50653;47.810;13.022;2023-03-14T13:12:56;1.10;;;1.00;;
14396;SDS011;50653;47.810;13.022;2023-03-14T13:15:43;1.60;;;1.33;;
14396;SDS011;50653;47.810;13.022;2023-03-14T13:18:15;2.90;;;2.45;;
14396;SDS011;50653;47.810;13.022;2023-03-14T13:20:48;1.90;;;0.80;;
14396;SDS011;50653;47.810;13.022;2023-03-14T13:23:22;1.70;;;1.60;;
14396;SDS011;50653;47.810;13.022;2023-03-14T13:25:49;2.00;;;0.85;;
14396;SDS011;50653;47.810;13.022;2023-03-14T13:28:16;1.10;;;1.00;;
14396;SDS011;50653;47.810;13.022;2023-03-14T13:30:43;1.00;;;0.88;;
14396;SDS011;50653;47.810;13.022;2023-03-14T13:33:12;1.02;;;0.93;;
14396;SDS011;50653;47.810;13.022;2023-03-14T13:35:48;1.02;;;0.93;;
14396;SDS011;50653;47.810;13.022;2023-03-14T13:38:23;1.00;;;0.90;;
14396;SDS011;50653;47.810;13.022;2023-03-14T13:40:54;1.30;;;1.20;;
14396;SDS011;50653;47.810;13.022;2023-03-14T13:43:27;1.73;;;1.30;;
14396;SDS011;50653;47.810;13.022;2023-03-14T13:46:20;1.60;;;1.27;;
14396;SDS011;50653;47.810;13.022;2023-03-14T13:48:48;1.30;;;0.90;;
14396;SDS011;50653;47.810;13.022;2023-03-14T13:51:20;2.30;;;1.30;;
14396;SDS011;50653;47.810;13.022;2023-03-14T13:53:48;2.45;;;1.20;;
14396;SDS011;50653;47.810;13.022;2023-03-14T13:56:15;1.02;;;0.90;;
14396;SDS011;50653;47.810;13.022;2023-03-14T13:58:42;1.20;;;1.00;;
14396;SDS011;50653;47.810;13.022;2023-03-14T14:01:13;1.20;;;1.10;;
14396;SDS011;50653;47.810;13.022;2023-03-14T14:03:49;1.50;;;1.10;;
14396;SDS011;50653;47.810;13.022;2023-03-14T14:06:19;1.00;;;0.80;;
14396;SDS011;50653;47.810;13.022;2023-03-14T14:09:01;0.90;;;0.77;;
14396;SDS011;50653;47.810;13.022;2023-03-14T14:14:15;1.40;;;0.90;;
14396;SDS011;50653;47.810;13.022;2023-03-14T14:16:45;1.55;;;0.85;;
14396;SDS011;50653;47.810;13.022;2023-03-14T14:19:13;1.13;;;0.80;;
14396;SDS011;50653;47.810;13.022;2023-03-14T14:21:40;1.20;;;0.80;;
14396;SDS011;50653;47.810;13.022;2023-03-14T14:24:08;0.93;;;0.70;;
14396;SDS011;50653;47.810;13.022;2023-03-14T14:26:39;1.73;;;1.10;;
14396;SDS011;50653;47.810;13.022;2023-03-14T14:29:06;1.30;;;1.10;;
14396;SDS011;50653;47.810;13.022;2023-03-14T14:31:58;1.20;;;0.70;;
14396;SDS011;50653;47.810;13.022;2023-03-14T14:34:40;0.80;;;0.80;;
14396;SDS011;50653;47.810;13.022;2023-03-14T14:37:17;0.80;;;0.60;;
14396;SDS011;50653;47.810;13.022;2023-03-14T14:39:51;0.70;;;0.70;;
14396;SDS011;50653;47.810;13.022;2023-03-14T14:42:20;0.77;;;0.60;;
14396;SDS011;50653;47.810;13.022;2023-03-14T14:44:50;1.83;;;0.82;;
14396;SDS011;50653;47.810;13.022;2023-03-14T14:47:20;1.30;;;1.00;;
14396;SDS011;50653;47.810;13.022;2023-03-14T14:49:49;1.10;;;0.90;;
14396;SDS011;50653;47.810;13.022;2023-03-14T14:52:21;1.60;;;1.00;;
14396;SDS011;50653;47.810;13.022;2023-03-14T14:54:59;1.08;;;0.82;;
14396;SDS011;50653;47.810;13.022;2023-03-14T14:57:33;1.48;;;1.15;;
14396;SDS011;50653;47.810;13.022;2023-03-14T15:00:17;1.30;;;0.98;;
14396;SDS011;50653;47.810;13.022;2023-03-14T15:02:45;1.00;;;0.90;;
14396;SDS011;50653;47.810;13.022;2023-03-14T15:05:17;1.10;;;1.00;;
14396;SDS011;50653;47.810;13.022;2023-03-14T15:07:48;1.67;;;1.57;;
14396;SDS011;50653;47.810;13.022;2023-03-14T15:10:22;1.30;;;1.20;;
14396;SDS011;50653;47.810;13.022;2023-03-14T15:12:57;1.30;;;1.20;;
14396;SDS011;50653;47.810;13.022;2023-03-14T15:15:29;1.45;;;1.35;;
14396;SDS011;50653;47.810;13.022;2023-03-14T15:17:59;2.05;;;1.17;;
14396;SDS011;50653;47.810;13.022;2023-03-14T15:20:34;1.60;;;1.38;;
14396;SDS011;50653;47.810;13.022;2023-03-14T15:23:02;1.80;;;0.82;;
14396;SDS011;50653;47.810;13.022;2023-03-14T15:25:36;1.50;;;1.25;;
14396;SDS011;50653;47.810;13.022;2023-03-14T15:28:16;2.20;;;2.10;;
14396;SDS011;50653;47.810;13.022;2023-03-14T15:31:12;2.10;;;1.40;;
14396;SDS011;50653;47.810;13.022;2023-03-14T15:33:46;1.30;;;1.00;;
14396;SDS011;50653;47.810;13.022;2023-03-14T15:36:19;1.00;;;0.90;;
14396;SDS011;50653;47.810;13.022;2023-03-14T15:38:52;0.80;;;0.60;;
14396;SDS011;50653;47.810;13.022;2023-03-14T15:41:19;1.70;;;0.80;;
14396;SDS011;50653;47.810;13.022;2023-03-14T15:43:46;1.38;;;0.80;;
14396;SDS011;50653;47.810;13.022;2023-03-14T15:46:12;1.00;;;0.70;;
14396;SDS011;50653;47.810;13.022;2023-03-14T15:48:39;1.35;;;0.80;;
14396;SDS011;50653;47.810;13.022;2023-03-14T15:51:05;1.90;;;0.70;;
14396;SDS011;50653;47.810;13.022;2023-03-14T15:53:31;2.58;;;0.60;;
14396;SDS011;50653;47.810;13.022;2023-03-14T15:55:57;0.70;;;0.60;;
14396;SDS011;50653;47.810;13.022;2023-03-14T15:58:23;0.98;;;0.77;;
14396;SDS011;50653;47.810;13.022;2023-03-14T16:00:49;1.10;;;0.60;;
14396;SDS011;50653;47.810;13.022;2023-03-14T16:03:15;2.20;;;0.50;;